Flight Track Log - Related Links

Times and Time Zones

All times are in EDT time to prevent confusion due to time zone crossing. See the THY1613 flight status page for this flight to view local times or setup timezone preferences in your user account.

Time Position Orientation Groundspeed Altitude Reporting Facility
EDT Latitude Longitude Course Direction KTS MPH feet Rate Location/Type
Wed 08:41:00 PM 38.1804 33.6146 313° West  Level Estimated
Wed 08:42:00 PM 38.2462 33.5205 312° West  Level Estimated
Wed 08:43:00 PM 38.3120 33.4262 312° West  Level Estimated
Wed 08:44:00 PM 38.3778 33.3317 312° West  Level Estimated
Wed 08:45:00 PM 38.4434 33.2370 312° West  Level Estimated
Wed 08:46:00 PM 38.5090 33.1422 311° West  Level Estimated
Wed 08:47:00 PM 38.5745 33.0472 311° West  Level Estimated
Wed 08:48:00 PM 38.6399 32.9521 311° West  Level Estimated
Wed 08:49:00 PM 38.7052 32.8567 311° West  Level Estimated
Wed 08:50:00 PM 38.7705 32.7612 311° West  Level Estimated
Wed 08:51:00 PM 38.8356 32.6655 311° West  Level Estimated
Wed 08:52:00 PM 38.9007 32.5697 311° West  Level Estimated
Wed 08:53:00 PM 38.9658 32.4736 311° West  Level Estimated
Wed 08:54:00 PM 39.0307 32.3774 311° West  Level Estimated
Wed 08:55:00 PM 39.0956 32.2810 311° West  Level Estimated
Wed 08:56:00 PM 39.1604 32.1845 311° West  Level Estimated
Wed 08:57:00 PM 39.2251 32.0877 311° West  Level Estimated
Wed 08:58:00 PM 39.2897 31.9908 311° West  Level Estimated
Wed 08:59:00 PM 39.3543 31.8937 311° West  Level Estimated
Wed 09:00:00 PM 39.4187 31.7964 311° West  Level Estimated
Wed 09:01:00 PM 39.4831 31.6989 311° West  Level Estimated
Wed 09:02:00 PM 39.5474 31.6013 311° West  Level Estimated
Wed 09:03:00 PM 39.6116 31.5035 310° West  Level Estimated
Wed 09:04:00 PM 39.6758 31.4055 310° West  Level Estimated
Wed 09:05:00 PM 39.7398 31.3073 310° West  Level Estimated
Wed 09:06:00 PM 39.8038 31.2089 310° West  Level Estimated
Wed 09:07:00 PM 39.8677 31.1104 310° West  Level Estimated
Wed 09:08:00 PM 39.9315 31.0116 310° West  Level Estimated
Wed 09:09:00 PM 39.9952 30.9127 310° West  Level Estimated
Wed 09:10:00 PM 40.0589 30.8136 310° West  Level Estimated
Wed 09:11:00 PM 40.1224 30.7143 310° West  Level Estimated
Wed 09:12:00 PM 40.1859 30.6148 310° West  Level Estimated
Wed 09:13:00 PM 40.2493 30.5152 310° West  Level Estimated
Wed 09:14:00 PM 40.3126 30.4153 310° West  Level Estimated
Wed 09:15:00 PM 40.3758 30.3153 310° West  Level Estimated
Wed 09:16:00 PM 40.4389 30.2150 310° West  Level Estimated
Wed 09:17:00 PM 40.5019 30.1146 310° West  Level Estimated
Wed 09:18:00 PM 40.5649 30.0140 309° West  Level Estimated
Wed 09:19:00 PM 40.6278 29.9132 309° West  Level Estimated
Wed 09:20:00 PM 40.6905 29.8123 309° West  Level Estimated
Wed 09:21:00 PM 40.7532 29.7111 309° West  Level Estimated
Wed 09:22:00 PM 40.8158 29.6097 309° West  Level Estimated
Wed 09:23:00 PM 40.8783 29.5082 309° West  Level Estimated
Wed 09:24:00 PM 40.9408 29.4064 309° West  Level Estimated
Wed 09:25:00 PM 41.0031 29.3045 309° West  Level Estimated
Wed 09:26:00 PM 41.0653 29.2024 309° West  Level Estimated
Wed 09:27:00 PM 41.1275 29.1000 309° West  Level Estimated
Wed 09:28:00 PM 41.1895 28.9975 309° West  Level Estimated
Wed 09:29:00 PM 41.2515 28.8948 309° West  Level Estimated
Wed 09:30:00 PM 41.3134 28.7919 309° West  Level Estimated
Wed 09:31:00 PM 41.3752 28.6888 309° West  Level Estimated
Wed 09:32:00 PM 41.4369 28.5855 309° West  Level Estimated
Wed 09:33:00 PM 41.4985 28.4820 308° West  Level Estimated
Wed 09:34:00 PM 41.5600 28.3783 308° West  Level Estimated
Wed 09:35:00 PM 41.6214 28.2744 308° West  Level Estimated
Wed 09:36:00 PM 41.6827 28.1703 308° West  Level Estimated
Wed 09:37:00 PM 41.7439 28.0660 308° West  Level Estimated
Wed 09:38:00 PM 41.8051 27.9615 308° West  Level Estimated
Wed 09:39:00 PM 41.8661 27.8569 308° West  Level Estimated
Wed 09:40:00 PM 41.9271 27.7520 308° West  Level Estimated
Wed 09:41:00 PM 41.9879 27.6469 308° West  Level Estimated
Wed 09:42:00 PM 42.0486 27.5416 308° West  Level Estimated
Wed 09:43:00 PM 42.1093 27.4361 308° West  Level Estimated
Wed 09:44:00 PM 42.1699 27.3304 308° West  Level Estimated
Wed 09:45:00 PM 42.2303 27.2245 308° West  Level Estimated
Wed 09:46:00 PM 42.2907 27.1185 308° West  Level Estimated
Wed 09:47:00 PM 42.3510 27.0121 308° West  Level Estimated
Wed 09:48:00 PM 42.4111 26.9056 307° West  Level Estimated
Wed 09:49:00 PM 42.4712 26.7989 307° West  Level Estimated
Wed 09:50:00 PM 42.5312 26.6920 307° West  Level Estimated
Wed 09:51:00 PM 42.5910 26.5849 307° West  Level Estimated
Wed 09:52:00 PM 42.6508 26.4776 307° West  Level Estimated
Wed 09:53:00 PM 42.7105 26.3701 307° West  Level Estimated
Wed 09:54:00 PM 42.7701 26.2623 307° West  Level Estimated
Wed 09:55:00 PM 42.8295 26.1544 307° West  Level Estimated
Wed 09:56:00 PM 42.8889 26.0462 307° West  Level Estimated
Wed 09:57:00 PM 42.9482 25.9379 307° West  Level Estimated
Wed 09:58:00 PM 43.0073 25.8293 307° West  Level Estimated
Wed 09:59:00 PM 43.0664 25.7205 307° West  Level Estimated
Wed 10:00:00 PM 43.1253 25.6115 307° West  Level Estimated
Wed 10:01:00 PM 43.1842 25.5023 306° West  Level Estimated
Wed 10:02:00 PM 43.2429 25.3929 306° West  Level Estimated
Wed 10:03:00 PM 43.3016 25.2833 306° West  Level Estimated
Wed 10:04:00 PM 43.3601 25.1735 306° West  Level Estimated
Wed 10:05:00 PM 43.4185 25.0634 306° West  Level Estimated
Wed 10:06:00 PM 43.4769 24.9532 306° West  Level Estimated
Wed 10:07:00 PM 43.5351 24.8427 306° West  Level Estimated
Wed 10:08:00 PM 43.5932 24.7320 306° West  Level Estimated
Wed 10:09:00 PM 43.6512 24.6211 306° West  Level Estimated
Wed 10:10:00 PM 43.7091 24.5100 306° West  Level Estimated
Wed 10:11:00 PM 43.7669 24.3987 306° West  Level Estimated
Wed 10:12:00 PM 43.8246 24.2872 306° West  Level Estimated
Wed 10:13:00 PM 43.8822 24.1754 306° West  Level Estimated
Wed 10:14:00 PM 43.9396 24.0634 306° West  Level Estimated
Wed 10:15:00 PM 43.9970 23.9513 305° West  Level Estimated
Wed 10:16:00 PM 44.0542 23.8389 305° West  Level Estimated
Wed 10:17:00 PM 44.1114 23.7262 305° West  Level Estimated
Wed 10:18:00 PM 44.1684 23.6134 305° West  Level Estimated
Wed 10:19:00 PM 44.2253 23.5003 305° West  Level Estimated
Wed 10:20:00 PM 44.2821 23.3871 305° West  Level Estimated
Wed 10:21:00 PM 44.3388 23.2736 305° West  Level Estimated
Wed 10:22:00 PM 44.3954 23.1599 305° West  Level Estimated
Wed 10:23:00 PM 44.4519 23.0459 305° West  Level Estimated
Wed 10:24:00 PM 44.5082 22.9318 305° West  Level Estimated
Wed 10:25:00 PM 44.5644 22.8174 305° West  Level Estimated
Wed 10:26:00 PM 44.6206 22.7028 305° West  Level Estimated
Wed 10:27:00 PM 44.6766 22.5880 304° West  Level Estimated
Wed 10:28:00 PM 44.7325 22.4730 304° West  Level Estimated
Wed 10:29:00 PM 44.7882 22.3577 304° West  Level Estimated
Wed 10:30:00 PM 44.8439 22.2422 304° West  Level Estimated
Wed 10:31:00 PM 44.8994 22.1265 304° West  Level Estimated
Wed 10:32:00 PM 44.9549 22.0106 304° West  Level Estimated
Wed 10:33:00 PM 45.0102 21.8944 304° West  Level Estimated
Wed 10:34:00 PM 45.0654 21.7781 304° West  Level Estimated
Wed 10:35:00 PM 45.1204 21.6615 304° West  Level Estimated
Wed 10:36:00 PM 45.1754 21.5446 304° West  Level Estimated
Wed 10:37:00 PM 45.2302 21.4276 304° West  Level Estimated
Wed 10:38:00 PM 45.2850 21.3103 304° West  Level Estimated
Wed 10:39:00 PM 45.3396 21.1928 303° West  Level Estimated
Wed 10:40:00 PM 45.3940 21.0751 303° West  Level Estimated
Wed 10:41:00 PM 45.4484 20.9571 303° West  Level Estimated
Wed 10:42:00 PM 45.5026 20.8389 303° West  Level Estimated
Wed 10:43:00 PM 45.5567 20.7205 303° West  Level Estimated
Wed 10:44:00 PM 45.6107 20.6019 303° West  Level Estimated
Wed 10:45:00 PM 45.6646 20.4830 303° West  Level Estimated
Wed 10:46:00 PM 45.7183 20.3639 303° West  Level Estimated
Wed 10:47:00 PM 45.7719 20.2446 303° West  Level Estimated
Wed 10:48:00 PM 45.8254 20.1250 303° West  Level Estimated
Wed 10:49:00 PM 45.8788 20.0052 303° West  Level Estimated
Wed 10:50:00 PM 45.9320 19.8852 303° West  Level Estimated
Wed 10:51:00 PM 45.9851 19.7649 302° West  Level Estimated
Wed 10:52:00 PM 46.0381 19.6445 302° West  Level Estimated
Wed 10:53:00 PM 46.0910 19.5238 302° West  Level Estimated
Wed 10:54:00 PM 46.1437 19.4028 302° West  Level Estimated
Wed 10:55:00 PM 46.1963 19.2816 302° West  Level Estimated
Wed 10:56:00 PM 46.2488 19.1602 302° West  Level Estimated
Wed 10:57:00 PM 46.3012 19.0386 302° West  Level Estimated
Wed 10:58:00 PM 46.3534 18.9167 302° West  Level Estimated
Wed 10:59:00 PM 46.4055 18.7946 302° West  Level Estimated
Wed 11:00:00 PM 46.4574 18.6723 302° West  Level Estimated
Wed 11:01:00 PM 46.5093 18.5497 302° West  Level Estimated
Wed 11:02:00 PM 46.5610 18.4269 302° West  Level Estimated
Wed 11:03:00 PM 46.6125 18.3039 301° West  Level Estimated
Wed 11:04:00 PM 46.6640 18.1806 301° West  Level Estimated
Wed 11:05:00 PM 46.7153 18.0571 301° West  Level Estimated
Wed 11:06:00 PM 46.7664 17.9334 301° West  Level Estimated
Wed 11:07:00 PM 46.8175 17.8094 301° West  Level Estimated
Wed 11:08:00 PM 46.8684 17.6852 301° West  Level Estimated
Wed 11:09:00 PM 46.9192 17.5607 301° West  Level Estimated
Wed 11:10:00 PM 46.9698 17.4361 301° West  Level Estimated
Wed 11:11:00 PM 47.0203 17.3111 301° West  Level Estimated
Wed 11:12:00 PM 47.0706 17.1860 301° West  Level Estimated
Wed 11:13:00 PM 47.1209 17.0606 301° West  Level Estimated
Wed 11:14:00 PM 47.1710 16.9350 300° West  Level Estimated
Wed 11:15:00 PM 47.2209 16.8091 300° West  Level Estimated
Wed 11:16:00 PM 47.2707 16.6830 300° West  Level Estimated
Wed 11:17:00 PM 47.3204 16.5567 300° West  Level Estimated
Wed 11:18:00 PM 47.3699 16.4301 300° West  Level Estimated
Wed 11:19:00 PM 47.4193 16.3033 300° West  Level Estimated
Wed 11:20:00 PM 47.4686 16.1763 300° West  Level Estimated
Wed 11:21:00 PM 47.5177 16.0490 300° West  Level Estimated
Wed 11:22:00 PM 47.5666 15.9214 300° West  Level Estimated
Wed 11:23:00 PM 47.6155 15.7937 300° West  Level Estimated
Wed 11:24:00 PM 47.6642 15.6657 299° West  Level Estimated
Wed 11:25:00 PM 47.7127 15.5374 299° West  Level Estimated
Wed 11:26:00 PM 47.7611 15.4089 299° West  Level Estimated
Wed 11:27:00 PM 47.8094 15.2802 299° West  Level Estimated
Wed 11:28:00 PM 47.8575 15.1513 299° West  Level Estimated
Wed 11:29:00 PM 47.9055 15.0221 299° West  Level Estimated
Wed 11:30:00 PM 47.9533 14.8926 299° West  Level Estimated
Wed 11:31:00 PM 48.0010 14.7629 299° West  Level Estimated
Wed 11:32:00 PM 48.0485 14.6330 299° West  Level Estimated
Wed 11:33:00 PM 48.0959 14.5029 299° West  Level Estimated
Wed 11:34:00 PM 48.1431 14.3725 299° West  Level Estimated
Wed 11:35:00 PM 48.1902 14.2418 298° West  Level Estimated
Wed 11:36:00 PM 48.2372 14.1110 298° West  Level Estimated
Wed 11:37:00 PM 48.2840 13.9798 298° West  Level Estimated
Wed 11:38:00 PM 48.3306 13.8485 298° West  Level Estimated
Wed 11:39:00 PM 48.3771 13.7169 298° West  Level Estimated
Wed 11:40:00 PM 48.4235 13.5850 298° West  Level Estimated
Wed 11:41:00 PM 48.4697 13.4530 298° West  Level Estimated
Wed 11:42:00 PM 48.5157 13.3206 298° West  Level Estimated
Wed 11:43:00 PM 48.5616 13.1881 298° West  Level Estimated
Wed 11:44:00 PM 48.6073 13.0553 298° West  Level Estimated
Wed 11:45:00 PM 48.6529 12.9222 297° West  Level Estimated
Wed 11:46:00 PM 48.6983 12.7890 297° West  Level Estimated
Wed 11:47:00 PM 48.7436 12.6554 297° West  Level Estimated
Wed 11:48:00 PM 48.7887 12.5217 297° West  Level Estimated
Wed 11:49:00 PM 48.8337 12.3877 297° West  Level Estimated
Wed 11:50:00 PM 48.8785 12.2534 297° West  Level Estimated
Wed 11:51:00 PM 48.9232 12.1190 297° West  Level Estimated
Wed 11:52:00 PM 48.9677 11.9842 297° West  Level Estimated
Wed 11:53:00 PM 49.0120 11.8493 297° West  Level Estimated
Wed 11:54:00 PM 49.0562 11.7141 297° West  Level Estimated
Wed 11:55:00 PM 49.1002 11.5786 296° West  Level Estimated
Wed 11:56:00 PM 49.1441 11.4430 296° West  Level Estimated
Wed 11:57:00 PM 49.1878 11.3070 296° West  Level Estimated
Wed 11:58:00 PM 49.2314 11.1709 296° West  Level Estimated
Wed 11:59:00 PM 49.2748 11.0345 296° West  Level Estimated
Thu 12:00:00 AM 49.3180 10.8978 296° West  Level Estimated
Thu 12:01:00 AM 49.3611 10.7610 296° West  Level Estimated
Thu 12:02:00 AM 49.4040 10.6238 296° West  Level Estimated
Thu 12:03:00 AM 49.4467 10.4865 296° West  Level Estimated
Thu 12:04:00 AM 49.4893 10.3489 296° West  Level Estimated
Thu 12:05:00 AM 49.5317 10.2110 295° West  Level Estimated
Thu 12:06:00 AM 49.5740 10.0730 295° West  Level Estimated
Thu 12:07:00 AM 49.6161 9.9347 295° West  Level Estimated
Thu 12:08:00 AM 49.6580 9.7961 295° West  Level Estimated
Thu 12:09:00 AM 49.6997 9.6573 295° West  Level Estimated
Thu 12:10:00 AM 49.7413 9.5183 295° West  Level Estimated
Thu 12:11:00 AM 49.7827 9.3790 295° West  Level Estimated
Thu 12:12:00 AM 49.8240 9.2395 295° West  Level Estimated
Thu 12:13:00 AM 49.8651 9.0998 295° West  Level Estimated
Thu 12:14:00 AM 49.9060 8.9598 294° West  Level Estimated
Thu 12:15:00 AM 49.9468 8.8196 294° West  Level Estimated
Thu 12:16:00 AM 49.9874 8.6791 294° West  Level Estimated
Thu 12:17:00 AM 50.0264 8.5431 294° West  Level Estimated
Thu 12:18:00 AM 50.0264 8.5431 73° East  Level Estimated
Thu 12:19:00 AM 50.0264 8.5431 73° East  Level Estimated
Thu 12:20:00 AM 50.0264 8.5431 73° East  Level Estimated
Thu 12:21:00 AM 50.0264 8.5431 73° East  Level Estimated
Thu 12:22:00 AM 50.0264 8.5431 73° East  Level Estimated
Thu 12:23:00 AM 50.0264 8.5431 73° East  Level Estimated
Thu 12:24:00 AM 50.0264 8.5431 73° East  Level Estimated
Thu 12:25:00 AM 50.0264 8.5431 73° East  Level Estimated
Thu 12:26:00 AM 50.0264 8.5431 73° East  Level Estimated
Thu 12:27:00 AM 50.0264 8.5431 73° East  Level Estimated
Thu 12:28:00 AM 50.0264 8.5431 73° East  Level Estimated
Thu 12:29:00 AM 50.0264 8.5431 73° East  Level Estimated
Thu 12:30:00 AM 50.0264 8.5431 73° East  Level Estimated
Thu 12:31:00 AM 50.0264 8.5431 73° East  Level Estimated
Thu 12:32:00 AM 50.0264 8.5431 73° East  Level Estimated
Thu 12:33:00 AM 50.0264 8.5431 73° East  Level Estimated

Login

Don't have an account? Register now (free) for customized features, flight alerts, and more!